Coral, Illinois
Current Conditions -  °F | °C
As of 3:15 AM on Monday 20 Oct 2014 (Local Time) from KDKB Reporting Station
Clear Clear  
Wind Chill: 41°   Ceiling: Unl
Heat Index: 45°   Visibility: 10mi
Dew Point: 42°   Wind: 7mph
Humidity: 90%   Direction: 210°SSW
Pressure: 29.84"   Gusts: NA
Location:  42.2385°N, 88.6273°W
Report Text: KDKB 200815Z AUTO 21006KT 10SM CLR 07/06 A2984 RMK AO2 T00710055
Loading
Personal Weather Stations






























Interactive Weather Map
Tropical Storm Tracking
New forecast layout! Learn more

10-Day Weather Forecast

Advertisements
Track Severe Weather on mobile